Philadelphia, PA

6:35 AM EST on November 26, 2014 (GMT -0500)
Philadelphia | Change Station
CLOSE
Current Station
Personal Weather Station
Location: Philadelphia, PA
Elevation: 167 ft
Nearby Weather Stations
Active Advisory: Winter Weather Advisory

Elev 167 ft 40.13 °N, 75.00 °W | Updated 8 minutes ago

Light Rain
Light Rain
42.8 °F
Feels Like 43 °F
N
0.0
Wind Variable Wind from ENE

Today
High -- | Low -- °F
--% Chance of Precip.
Yesterday
High -- | Low -- °F
Precip. -- in
6:57 AM 4:36 PM
Waxing Crescent, 19% visible
Pressure 30.11 in
Visibility 10.0 miles
Clouds Overcast 6500 ft
Windchill 43 °F
Dew Point 39 °F
Humidity 85%
Rainfall 0.04 in
Snow Depth Not available.
UV 0 out of 12
Pollen .10 out of 12
Air Quality Not available.
Flu Activity Not available.
METAR KPNE 261054Z 04004KT 10SM -RA OVC065 08/00 A3011 RMK AO2 SLP196 P0000 T00830000 $

More Conditions Fewer Conditions

Pressure 30.11 in
Visibility 10.0 miles
Clouds Overcast 6500 ft
Windchill 43 °F
Dew Point 39 °F
Humidity 85%
Rainfall 0.04 in
Snow Depth Not available.
UV 0 out of 12
Pollen .10 out of 12
Air Quality Not available.
Flu Activity Not available.
METAR KPNE 261054Z 04004KT 10SM -RA OVC065 08/00 A3011 RMK AO2 SLP196 P0000 T00830000 $

More Conditions Fewer Conditions

10-Day Weather Forecast

Almanac

Astronomy

Nov. 26, 2014 Rise Set
Actual Time
Civil Twilight
Nautical Twilight
Astronomical Twilight
Moon
Length of Visible Light
Length of Day
Tomorrow will be .
, % of the Moon is Illuminated

Today's Extremes

State Highs State Lows

Community

WunderPhotos

Upload Photos

1,773,708 photos uploaded!

WunderBlogs® & News

Nearby

Air Quality

  Air Quality AQ Index Pollutant
Not available.

Snow Depth

Station Depth Elevation

Earthquake Activity

City Distance Mag. Time & Date
Minimum magnitude displayed is 2.5.

Coastal Water Temperatures

Place Temperature

Nearby Weather Stations